sensor_id;sensor_type;location;lat;lon;timestamp;P1;durP1;ratioP1;P2;durP2;ratioP2
10174;SDS011;18221;38.704;0.152;2023-06-10T00:00:04;12.23;;;5.57;;
10174;SDS011;18221;38.704;0.152;2023-06-10T00:13:14;5.13;;;3.40;;
10174;SDS011;18221;38.704;0.152;2023-06-10T00:15:42;9.57;;;4.07;;
10174;SDS011;18221;38.704;0.152;2023-06-10T00:18:11;9.13;;;4.63;;
10174;SDS011;18221;38.704;0.152;2023-06-10T00:20:39;7.20;;;4.50;;
10174;SDS011;18221;38.704;0.152;2023-06-10T00:23:07;10.23;;;4.37;;
10174;SDS011;18221;38.704;0.152;2023-06-10T00:25:36;8.67;;;4.47;;
10174;SDS011;18221;38.704;0.152;2023-06-10T00:28:04;7.90;;;3.90;;
10174;SDS011;18221;38.704;0.152;2023-06-10T00:30:34;7.87;;;3.43;;
10174;SDS011;18221;38.704;0.152;2023-06-10T00:33:02;5.33;;;3.07;;
10174;SDS011;18221;38.704;0.152;2023-06-10T00:35:30;5.03;;;3.33;;
10174;SDS011;18221;38.704;0.152;2023-06-10T00:37:58;5.50;;;2.93;;
10174;SDS011;18221;38.704;0.152;2023-06-10T00:40:26;3.70;;;2.63;;
10174;SDS011;18221;38.704;0.152;2023-06-10T00:42:54;5.67;;;2.67;;
10174;SDS011;18221;38.704;0.152;2023-06-10T00:45:22;5.57;;;2.40;;
10174;SDS011;18221;38.704;0.152;2023-06-10T00:47:52;3.37;;;2.50;;
10174;SDS011;18221;38.704;0.152;2023-06-10T00:50:20;5.03;;;3.07;;
10174;SDS011;18221;38.704;0.152;2023-06-10T00:52:48;3.73;;;2.40;;
10174;SDS011;18221;38.704;0.152;2023-06-10T00:55:17;4.53;;;2.60;;
10174;SDS011;18221;38.704;0.152;2023-06-10T00:57:45;4.70;;;2.70;;
10174;SDS011;18221;38.704;0.152;2023-06-10T01:00:15;4.77;;;2.30;;
10174;SDS011;18221;38.704;0.152;2023-06-10T01:02:44;2.43;;;2.17;;
10174;SDS011;18221;38.704;0.152;2023-06-10T01:05:13;4.03;;;2.40;;
10174;SDS011;18221;38.704;0.152;2023-06-10T01:07:43;3.17;;;2.47;;
10174;SDS011;18221;38.704;0.152;2023-06-10T01:10:28;3.20;;;2.10;;
10174;SDS011;18221;38.704;0.152;2023-06-10T01:13:02;4.73;;;2.20;;
10174;SDS011;18221;38.704;0.152;2023-06-10T01:15:37;3.20;;;2.30;;
10174;SDS011;18221;38.704;0.152;2023-06-10T01:18:06;3.47;;;2.50;;
10174;SDS011;18221;38.704;0.152;2023-06-10T01:20:42;4.23;;;2.27;;
10174;SDS011;18221;38.704;0.152;2023-06-10T01:23:13;2.67;;;2.27;;
10174;SDS011;18221;38.704;0.152;2023-06-10T01:25:43;3.27;;;1.90;;
10174;SDS011;18221;38.704;0.152;2023-06-10T01:28:19;4.20;;;2.00;;
10174;SDS011;18221;38.704;0.152;2023-06-10T01:30:59;3.10;;;1.73;;
10174;SDS011;18221;38.704;0.152;2023-06-10T01:33:37;2.23;;;1.80;;
10174;SDS011;18221;38.704;0.152;2023-06-10T01:36:09;2.43;;;1.70;;
10174;SDS011;18221;38.704;0.152;2023-06-10T01:38:42;2.90;;;2.00;;
10174;SDS011;18221;38.704;0.152;2023-06-10T01:41:12;3.07;;;1.67;;
10174;SDS011;18221;38.704;0.152;2023-06-10T01:43:43;3.93;;;2.20;;
10174;SDS011;18221;38.704;0.152;2023-06-10T01:46:12;3.00;;;1.93;;
10174;SDS011;18221;38.704;0.152;2023-06-10T01:48:44;4.17;;;1.93;;
10174;SDS011;18221;38.704;0.152;2023-06-10T01:51:12;3.13;;;2.10;;
10174;SDS011;18221;38.704;0.152;2023-06-10T01:53:42;3.83;;;2.00;;
10174;SDS011;18221;38.704;0.152;2023-06-10T01:56:10;2.93;;;1.90;;
10174;SDS011;18221;38.704;0.152;2023-06-10T01:58:42;3.30;;;1.80;;
10174;SDS011;18221;38.704;0.152;2023-06-10T02:01:10;2.67;;;1.83;;
10174;SDS011;18221;38.704;0.152;2023-06-10T02:03:38;2.17;;;1.80;;
10174;SDS011;18221;38.704;0.152;2023-06-10T02:06:06;3.63;;;2.00;;
10174;SDS011;18221;38.704;0.152;2023-06-10T02:08:34;3.83;;;2.07;;
10174;SDS011;18221;38.704;0.152;2023-06-10T02:11:03;2.97;;;1.93;;
10174;SDS011;18221;38.704;0.152;2023-06-10T02:13:32;3.50;;;2.27;;
10174;SDS011;18221;38.704;0.152;2023-06-10T02:16:00;4.37;;;1.73;;
10174;SDS011;18221;38.704;0.152;2023-06-10T02:18:28;2.90;;;2.20;;
10174;SDS011;18221;38.704;0.152;2023-06-10T02:20:56;2.43;;;1.80;;
10174;SDS011;18221;38.704;0.152;2023-06-10T02:23:24;3.10;;;2.20;;
10174;SDS011;18221;38.704;0.152;2023-06-10T02:25:52;3.30;;;2.00;;
10174;SDS011;18221;38.704;0.152;2023-06-10T02:28:21;2.93;;;1.90;;
10174;SDS011;18221;38.704;0.152;2023-06-10T02:30:49;2.60;;;1.80;;
10174;SDS011;18221;38.704;0.152;2023-06-10T02:33:18;2.43;;;1.80;;
10174;SDS011;18221;38.704;0.152;2023-06-10T02:35:47;3.40;;;2.00;;
10174;SDS011;18221;38.704;0.152;2023-06-10T02:38:15;2.70;;;2.00;;
10174;SDS011;18221;38.704;0.152;2023-06-10T02:40:43;1.77;;;1.57;;
10174;SDS011;18221;38.704;0.152;2023-06-10T02:43:11;2.63;;;1.90;;
10174;SDS011;18221;38.704;0.152;2023-06-10T02:45:40;4.63;;;1.80;;
10174;SDS011;18221;38.704;0.152;2023-06-10T02:48:08;2.83;;;1.80;;
10174;SDS011;18221;38.704;0.152;2023-06-10T02:50:36;4.57;;;2.20;;
10174;SDS011;18221;38.704;0.152;2023-06-10T02:53:05;5.00;;;2.10;;
10174;SDS011;18221;38.704;0.152;2023-06-10T02:55:33;4.03;;;2.07;;
10174;SDS011;18221;38.704;0.152;2023-06-10T02:58:01;2.67;;;1.90;;
10174;SDS011;18221;38.704;0.152;2023-06-10T03:00:29;3.23;;;1.90;;
10174;SDS011;18221;38.704;0.152;2023-06-10T03:02:59;3.73;;;2.07;;
10174;SDS011;18221;38.704;0.152;2023-06-10T03:05:28;2.73;;;2.00;;
10174;SDS011;18221;38.704;0.152;2023-06-10T03:07:56;3.60;;;2.00;;
10174;SDS011;18221;38.704;0.152;2023-06-10T03:10:24;3.60;;;2.00;;
10174;SDS011;18221;38.704;0.152;2023-06-10T03:12:52;2.73;;;1.93;;
10174;SDS011;18221;38.704;0.152;2023-06-10T03:15:20;4.27;;;2.10;;
10174;SDS011;18221;38.704;0.152;2023-06-10T03:17:49;4.37;;;2.10;;
10174;SDS011;18221;38.704;0.152;2023-06-10T03:20:19;4.73;;;2.13;;
10174;SDS011;18221;38.704;0.152;2023-06-10T03:22:48;3.83;;;2.00;;
10174;SDS011;18221;38.704;0.152;2023-06-10T03:25:16;4.30;;;2.10;;
10174;SDS011;18221;38.704;0.152;2023-06-10T03:27:46;4.23;;;1.93;;
10174;SDS011;18221;38.704;0.152;2023-06-10T03:30:14;3.37;;;2.00;;
10174;SDS011;18221;38.704;0.152;2023-06-10T03:32:42;3.87;;;2.20;;
10174;SDS011;18221;38.704;0.152;2023-06-10T03:35:10;4.43;;;2.00;;
10174;SDS011;18221;38.704;0.152;2023-06-10T03:37:41;5.17;;;2.10;;
10174;SDS011;18221;38.704;0.152;2023-06-10T03:40:09;3.90;;;2.00;;
10174;SDS011;18221;38.704;0.152;2023-06-10T03:42:39;7.07;;;2.30;;
10174;SDS011;18221;38.704;0.152;2023-06-10T03:45:09;5.47;;;2.20;;
10174;SDS011;18221;38.704;0.152;2023-06-10T03:47:37;4.23;;;2.10;;
10174;SDS011;18221;38.704;0.152;2023-06-10T03:50:06;3.93;;;2.33;;
10174;SDS011;18221;38.704;0.152;2023-06-10T03:52:35;4.93;;;1.90;;
10174;SDS011;18221;38.704;0.152;2023-06-10T03:55:07;3.73;;;2.03;;
10174;SDS011;18221;38.704;0.152;2023-06-10T03:57:38;3.70;;;2.10;;
10174;SDS011;18221;38.704;0.152;2023-06-10T04:00:07;3.00;;;1.80;;
10174;SDS011;18221;38.704;0.152;2023-06-10T04:02:46;2.17;;;1.90;;
10174;SDS011;18221;38.704;0.152;2023-06-10T04:05:17;3.53;;;2.27;;
10174;SDS011;18221;38.704;0.152;2023-06-10T04:07:48;3.83;;;2.10;;
10174;SDS011;18221;38.704;0.152;2023-06-10T04:10:17;4.63;;;2.17;;
10174;SDS011;18221;38.704;0.152;2023-06-10T04:12:45;3.47;;;2.00;;
10174;SDS011;18221;38.704;0.152;2023-06-10T04:15:13;3.53;;;2.03;;
10174;SDS011;18221;38.704;0.152;2023-06-10T04:17:42;4.07;;;2.17;;
10174;SDS011;18221;38.704;0.152;2023-06-10T04:20:13;4.87;;;2.00;;
10174;SDS011;18221;38.704;0.152;2023-06-10T04:22:41;4.23;;;2.27;;
10174;SDS011;18221;38.704;0.152;2023-06-10T04:25:09;4.30;;;2.20;;
10174;SDS011;18221;38.704;0.152;2023-06-10T04:27:39;4.80;;;2.30;;
10174;SDS011;18221;38.704;0.152;2023-06-10T04:30:07;5.27;;;2.20;;
10174;SDS011;18221;38.704;0.152;2023-06-10T04:32:36;3.60;;;2.07;;
10174;SDS011;18221;38.704;0.152;2023-06-10T04:35:05;4.23;;;2.00;;
10174;SDS011;18221;38.704;0.152;2023-06-10T04:37:34;2.80;;;2.03;;
10174;SDS011;18221;38.704;0.152;2023-06-10T04:40:02;3.07;;;2.00;;
10174;SDS011;18221;38.704;0.152;2023-06-10T04:42:31;3.60;;;2.30;;
10174;SDS011;18221;38.704;0.152;2023-06-10T04:45:00;4.77;;;1.97;;
10174;SDS011;18221;38.704;0.152;2023-06-10T04:47:29;3.53;;;2.00;;
10174;SDS011;18221;38.704;0.152;2023-06-10T04:49:58;3.47;;;2.10;;
10174;SDS011;18221;38.704;0.152;2023-06-10T04:52:26;4.50;;;2.40;;
10174;SDS011;18221;38.704;0.152;2023-06-10T04:54:54;5.10;;;2.20;;
10174;SDS011;18221;38.704;0.152;2023-06-10T04:57:23;5.87;;;2.40;;
10174;SDS011;18221;38.704;0.152;2023-06-10T04:59:52;4.73;;;2.00;;
10174;SDS011;18221;38.704;0.152;2023-06-10T05:02:21;4.73;;;2.07;;
10174;SDS011;18221;38.704;0.152;2023-06-10T05:04:50;4.17;;;2.20;;
10174;SDS011;18221;38.704;0.152;2023-06-10T05:07:18;3.13;;;1.90;;
10174;SDS011;18221;38.704;0.152;2023-06-10T05:09:47;5.10;;;2.30;;
10174;SDS011;18221;38.704;0.152;2023-06-10T05:12:15;5.80;;;2.40;;
10174;SDS011;18221;38.704;0.152;2023-06-10T05:14:43;4.73;;;2.33;;
10174;SDS011;18221;38.704;0.152;2023-06-10T05:17:11;4.60;;;2.30;;
10174;SDS011;18221;38.704;0.152;2023-06-10T05:19:41;4.10;;;2.10;;
10174;SDS011;18221;38.704;0.152;2023-06-10T05:22:09;5.13;;;2.17;;
10174;SDS011;18221;38.704;0.152;2023-06-10T05:24:37;5.97;;;2.20;;
10174;SDS011;18221;38.704;0.152;2023-06-10T05:27:05;4.17;;;2.20;;
10174;SDS011;18221;38.704;0.152;2023-06-10T05:29:34;4.47;;;2.10;;
10174;SDS011;18221;38.704;0.152;2023-06-10T05:32:02;5.87;;;2.37;;
10174;SDS011;18221;38.704;0.152;2023-06-10T05:34:30;3.80;;;2.30;;
10174;SDS011;18221;38.704;0.152;2023-06-10T05:37:00;5.67;;;2.37;;
10174;SDS011;18221;38.704;0.152;2023-06-10T05:39:28;3.57;;;1.93;;
10174;SDS011;18221;38.704;0.152;2023-06-10T05:41:56;4.93;;;2.37;;
10174;SDS011;18221;38.704;0.152;2023-06-10T05:44:26;3.30;;;2.07;;
10174;SDS011;18221;38.704;0.152;2023-06-10T05:46:54;5.97;;;2.37;;
10174;SDS011;18221;38.704;0.152;2023-06-10T05:49:22;4.20;;;2.20;;
10174;SDS011;18221;38.704;0.152;2023-06-10T05:51:50;6.77;;;2.40;;
10174;SDS011;18221;38.704;0.152;2023-06-10T05:54:20;4.07;;;2.10;;
10174;SDS011;18221;38.704;0.152;2023-06-10T05:56:48;4.93;;;2.03;;
10174;SDS011;18221;38.704;0.152;2023-06-10T05:59:16;5.43;;;2.40;;
10174;SDS011;18221;38.704;0.152;2023-06-10T06:01:44;6.97;;;2.50;;
10174;SDS011;18221;38.704;0.152;2023-06-10T06:04:12;6.03;;;2.47;;
10174;SDS011;18221;38.704;0.152;2023-06-10T06:06:39;6.17;;;2.77;;
10174;SDS011;18221;38.704;0.152;2023-06-10T06:09:07;4.40;;;2.57;;
10174;SDS011;18221;38.704;0.152;2023-06-10T06:11:37;5.10;;;2.80;;
10174;SDS011;18221;38.704;0.152;2023-06-10T06:14:05;6.13;;;2.63;;
10174;SDS011;18221;38.704;0.152;2023-06-10T06:16:33;5.90;;;3.07;;
10174;SDS011;18221;38.704;0.152;2023-06-10T06:19:01;5.63;;;2.97;;
10174;SDS011;18221;38.704;0.152;2023-06-10T06:21:31;6.70;;;3.10;;
10174;SDS011;18221;38.704;0.152;2023-06-10T06:23:59;5.07;;;3.00;;
10174;SDS011;18221;38.704;0.152;2023-06-10T06:26:27;9.77;;;4.50;;
10174;SDS011;18221;38.704;0.152;2023-06-10T06:28:56;8.83;;;4.43;;
10174;SDS011;18221;38.704;0.152;2023-06-10T06:31:25;7.87;;;4.07;;
10174;SDS011;18221;38.704;0.152;2023-06-10T06:33:53;7.20;;;3.53;;
10174;SDS011;18221;38.704;0.152;2023-06-10T06:36:20;6.57;;;3.20;;
10174;SDS011;18221;38.704;0.152;2023-06-10T06:38:48;6.03;;;3.00;;
10174;SDS011;18221;38.704;0.152;2023-06-10T06:41:16;5.40;;;2.60;;
10174;SDS011;18221;38.704;0.152;2023-06-10T06:43:44;6.83;;;3.17;;
10174;SDS011;18221;38.704;0.152;2023-06-10T06:46:14;5.37;;;3.00;;
10174;SDS011;18221;38.704;0.152;2023-06-10T06:48:42;5.17;;;2.87;;
10174;SDS011;18221;38.704;0.152;2023-06-10T06:51:10;6.47;;;3.50;;
10174;SDS011;18221;38.704;0.152;2023-06-10T06:53:38;8.03;;;3.73;;
10174;SDS011;18221;38.704;0.152;2023-06-10T06:56:09;4.93;;;3.00;;
10174;SDS011;18221;38.704;0.152;2023-06-10T06:58:37;12.67;;;5.10;;
10174;SDS011;18221;38.704;0.152;2023-06-10T07:01:05;12.93;;;4.53;;
10174;SDS011;18221;38.704;0.152;2023-06-10T07:03:35;14.77;;;4.50;;
10174;SDS011;18221;38.704;0.152;2023-06-10T07:06:03;12.77;;;3.93;;
10174;SDS011;18221;38.704;0.152;2023-06-10T07:08:31;9.13;;;3.92;;
10174;SDS011;18221;38.704;0.152;2023-06-10T07:10:59;9.07;;;4.00;;
10174;SDS011;18221;38.704;0.152;2023-06-10T07:13:27;9.37;;;4.10;;
10174;SDS011;18221;38.704;0.152;2023-06-10T07:15:55;10.97;;;4.00;;
10174;SDS011;18221;38.704;0.152;2023-06-10T07:18:24;9.47;;;4.00;;
10174;SDS011;18221;38.704;0.152;2023-06-10T07:20:53;8.30;;;3.53;;
10174;SDS011;18221;38.704;0.152;2023-06-10T07:23:21;8.03;;;3.13;;
10174;SDS011;18221;38.704;0.152;2023-06-10T07:25:49;7.97;;;3.70;;
10174;SDS011;18221;38.704;0.152;2023-06-10T07:28:17;7.50;;;3.60;;
10174;SDS011;18221;38.704;0.152;2023-06-10T07:30:46;5.95;;;3.13;;
10174;SDS011;18221;38.704;0.152;2023-06-10T07:33:14;9.18;;;3.95;;
10174;SDS011;18221;38.704;0.152;2023-06-10T07:35:42;7.57;;;4.03;;
10174;SDS011;18221;38.704;0.152;2023-06-10T07:38:11;7.00;;;3.53;;
10174;SDS011;18221;38.704;0.152;2023-06-10T07:40:39;6.75;;;3.65;;
10174;SDS011;18221;38.704;0.152;2023-06-10T07:43:07;5.63;;;3.50;;
10174;SDS011;18221;38.704;0.152;2023-06-10T07:45:36;7.28;;;3.38;;
10174;SDS011;18221;38.704;0.152;2023-06-10T07:48:06;6.63;;;3.67;;
10174;SDS011;18221;38.704;0.152;2023-06-10T07:50:34;7.47;;;3.50;;
10174;SDS011;18221;38.704;0.152;2023-06-10T07:53:03;7.32;;;3.17;;
10174;SDS011;18221;38.704;0.152;2023-06-10T07:55:33;5.82;;;2.60;;
10174;SDS011;18221;38.704;0.152;2023-06-10T07:58:01;6.25;;;2.70;;
10174;SDS011;18221;38.704;0.152;2023-06-10T08:00:29;6.40;;;2.88;;
10174;SDS011;18221;38.704;0.152;2023-06-10T08:02:57;5.80;;;2.72;;
10174;SDS011;18221;38.704;0.152;2023-06-10T08:05:26;4.20;;;2.40;;
10174;SDS011;18221;38.704;0.152;2023-06-10T08:07:54;5.55;;;2.25;;
10174;SDS011;18221;38.704;0.152;2023-06-10T08:10:22;4.03;;;2.08;;
10174;SDS011;18221;38.704;0.152;2023-06-10T08:12:52;3.67;;;2.13;;
10174;SDS011;18221;38.704;0.152;2023-06-10T08:15:20;3.13;;;1.90;;
10174;SDS011;18221;38.704;0.152;2023-06-10T08:17:48;3.28;;;1.67;;
10174;SDS011;18221;38.704;0.152;2023-06-10T08:20:16;3.80;;;2.10;;
10174;SDS011;18221;38.704;0.152;2023-06-10T08:22:44;3.30;;;1.98;;
10174;SDS011;18221;38.704;0.152;2023-06-10T08:25:12;3.55;;;2.00;;
10174;SDS011;18221;38.704;0.152;2023-06-10T08:27:40;4.63;;;2.08;;
10174;SDS011;18221;38.704;0.152;2023-06-10T08:30:11;5.05;;;2.17;;
10174;SDS011;18221;38.704;0.152;2023-06-10T08:32:39;4.05;;;2.00;;
10174;SDS011;18221;38.704;0.152;2023-06-10T08:35:07;5.40;;;2.20;;
10174;SDS011;18221;38.704;0.152;2023-06-10T08:37:36;4.75;;;2.10;;
10174;SDS011;18221;38.704;0.152;2023-06-10T08:40:04;5.22;;;1.85;;
10174;SDS011;18221;38.704;0.152;2023-06-10T08:42:36;3.40;;;2.13;;
10174;SDS011;18221;38.704;0.152;2023-06-10T08:45:17;5.18;;;2.47;;
10174;SDS011;18221;38.704;0.152;2023-06-10T08:47:45;4.82;;;2.50;;
10174;SDS011;18221;38.704;0.152;2023-06-10T08:50:17;4.40;;;2.40;;
10174;SDS011;18221;38.704;0.152;2023-06-10T08:52:46;4.22;;;2.45;;
10174;SDS011;18221;38.704;0.152;2023-06-10T08:55:21;7.07;;;2.88;;
10174;SDS011;18221;38.704;0.152;2023-06-10T08:57:56;3.92;;;2.25;;
10174;SDS011;18221;38.704;0.152;2023-06-10T09:00:27;5.18;;;2.72;;
10174;SDS011;18221;38.704;0.152;2023-06-10T09:02:57;3.63;;;2.30;;
10174;SDS011;18221;38.704;0.152;2023-06-10T09:05:27;3.33;;;2.30;;
10174;SDS011;18221;38.704;0.152;2023-06-10T09:07:59;4.32;;;2.65;;
10174;SDS011;18221;38.704;0.152;2023-06-10T09:10:28;5.40;;;3.85;;
10174;SDS011;18221;38.704;0.152;2023-06-10T09:12:57;4.22;;;2.80;;
10174;SDS011;18221;38.704;0.152;2023-06-10T09:15:27;4.28;;;2.85;;
10174;SDS011;18221;38.704;0.152;2023-06-10T09:17:55;4.07;;;2.63;;
10174;SDS011;18221;38.704;0.152;2023-06-10T09:20:23;3.30;;;2.60;;
10174;SDS011;18221;38.704;0.152;2023-06-10T09:22:51;5.40;;;2.70;;
10174;SDS011;18221;38.704;0.152;2023-06-10T09:25:20;6.03;;;2.85;;
10174;SDS011;18221;38.704;0.152;2023-06-10T09:28:03;3.90;;;2.15;;
10174;SDS011;18221;38.704;0.152;2023-06-10T09:30:40;3.00;;;2.20;;
10174;SDS011;18221;38.704;0.152;2023-06-10T09:33:11;6.72;;;2.42;;
10174;SDS011;18221;38.704;0.152;2023-06-10T09:35:44;4.75;;;2.47;;
10174;SDS011;18221;38.704;0.152;2023-06-10T09:38:15;3.22;;;2.22;;
10174;SDS011;18221;38.704;0.152;2023-06-10T09:40:48;4.65;;;2.60;;
10174;SDS011;18221;38.704;0.152;2023-06-10T09:43:18;2.88;;;2.35;;
10174;SDS011;18221;38.704;0.152;2023-06-10T09:45:48;6.47;;;2.40;;
10174;SDS011;18221;38.704;0.152;2023-06-10T09:48:18;4.25;;;2.20;;
10174;SDS011;18221;38.704;0.152;2023-06-10T09:50:48;4.32;;;2.55;;
10174;SDS011;18221;38.704;0.152;2023-06-10T09:53:16;3.70;;;2.60;;
10174;SDS011;18221;38.704;0.152;2023-06-10T09:55:45;5.25;;;3.00;;
10174;SDS011;18221;38.704;0.152;2023-06-10T09:58:13;3.88;;;2.47;;
10174;SDS011;18221;38.704;0.152;2023-06-10T10:00:41;9.35;;;2.88;;
10174;SDS011;18221;38.704;0.152;2023-06-10T10:03:11;4.65;;;2.83;;
10174;SDS011;18221;38.704;0.152;2023-06-10T10:05:50;6.07;;;3.10;;
10174;SDS011;18221;38.704;0.152;2023-06-10T10:08:26;6.28;;;3.08;;
10174;SDS011;18221;38.704;0.152;2023-06-10T10:10:55;4.82;;;3.05;;
10174;SDS011;18221;38.704;0.152;2023-06-10T10:13:24;6.38;;;3.20;;
10174;SDS011;18221;38.704;0.152;2023-06-10T10:15:56;9.13;;;3.10;;
10174;SDS011;18221;38.704;0.152;2023-06-10T10:18:34;6.18;;;3.22;;
10174;SDS011;18221;38.704;0.152;2023-06-10T10:21:11;5.82;;;3.15;;
10174;SDS011;18221;38.704;0.152;2023-06-10T10:23:44;9.18;;;3.13;;
10174;SDS011;18221;38.704;0.152;2023-06-10T10:26:21;7.50;;;3.22;;
10174;SDS011;18221;38.704;0.152;2023-06-10T10:28:56;7.93;;;3.20;;
10174;SDS011;18221;38.704;0.152;2023-06-10T10:31:36;6.65;;;2.83;;
10174;SDS011;18221;38.704;0.152;2023-06-10T10:34:12;6.80;;;3.35;;
10174;SDS011;18221;38.704;0.152;2023-06-10T10:36:43;6.07;;;3.40;;
10174;SDS011;18221;38.704;0.152;2023-06-10T10:39:13;9.60;;;3.58;;
10174;SDS011;18221;38.704;0.152;2023-06-10T10:41:44;6.93;;;3.28;;
10174;SDS011;18221;38.704;0.152;2023-06-10T10:44:15;7.85;;;3.28;;
10174;SDS011;18221;38.704;0.152;2023-06-10T10:46:44;6.88;;;3.38;;
10174;SDS011;18221;38.704;0.152;2023-06-10T10:49:18;5.93;;;3.10;;
10174;SDS011;18221;38.704;0.152;2023-06-10T10:51:56;6.60;;;3.13;;
10174;SDS011;18221;38.704;0.152;2023-06-10T10:54:29;8.57;;;3.10;;
10174;SDS011;18221;38.704;0.152;2023-06-10T10:57:14;9.90;;;3.60;;
10174;SDS011;18221;38.704;0.152;2023-06-10T10:59:51;7.07;;;3.53;;
10174;SDS011;18221;38.704;0.152;2023-06-10T11:02:35;7.97;;;3.05;;
10174;SDS011;18221;38.704;0.152;2023-06-10T11:05:10;11.27;;;3.70;;
10174;SDS011;18221;38.704;0.152;2023-06-10T11:07:51;7.75;;;3.40;;
10174;SDS011;18221;38.704;0.152;2023-06-10T11:10:28;7.53;;;3.63;;
10174;SDS011;18221;38.704;0.152;2023-06-10T11:12:58;7.80;;;3.50;;
10174;SDS011;18221;38.704;0.152;2023-06-10T11:15:28;7.07;;;3.20;;
10174;SDS011;18221;38.704;0.152;2023-06-10T11:18:06;9.55;;;3.85;;
10174;SDS011;18221;38.704;0.152;2023-06-10T11:20:52;8.93;;;3.80;;
10174;SDS011;18221;38.704;0.152;2023-06-10T11:23:39;7.63;;;3.50;;
10174;SDS011;18221;38.704;0.152;2023-06-10T11:26:09;6.28;;;3.10;;
10174;SDS011;18221;38.704;0.152;2023-06-10T11:31:32;8.95;;;3.70;;
10174;SDS011;18221;38.704;0.152;2023-06-10T11:34:06;8.07;;;3.60;;
10174;SDS011;18221;38.704;0.152;2023-06-10T11:36:37;6.95;;;3.40;;
10174;SDS011;18221;38.704;0.152;2023-06-10T11:39:10;7.03;;;3.45;;
10174;SDS011;18221;38.704;0.152;2023-06-10T11:41:39;8.10;;;3.72;;
10174;SDS011;18221;38.704;0.152;2023-06-10T11:44:08;9.02;;;3.53;;
10174;SDS011;18221;38.704;0.152;2023-06-10T11:46:38;7.78;;;3.58;;
10174;SDS011;18221;38.704;0.152;2023-06-10T11:49:07;6.18;;;3.38;;
10174;SDS011;18221;38.704;0.152;2023-06-10T11:51:37;7.47;;;3.20;;
10174;SDS011;18221;38.704;0.152;2023-06-10T11:54:14;7.03;;;3.40;;
10174;SDS011;18221;38.704;0.152;2023-06-10T11:56:43;8.50;;;3.75;;
10174;SDS011;18221;38.704;0.152;2023-06-10T11:59:12;5.95;;;3.63;;
10174;SDS011;18221;38.704;0.152;2023-06-10T12:01:42;4.75;;;3.10;;
10174;SDS011;18221;38.704;0.152;2023-06-10T12:04:12;7.93;;;3.17;;
10174;SDS011;18221;38.704;0.152;2023-06-10T12:06:43;7.05;;;3.35;;
10174;SDS011;18221;38.704;0.152;2023-06-10T12:09:17;7.88;;;3.65;;
10174;SDS011;18221;38.704;0.152;2023-06-10T12:11:48;8.32;;;3.50;;
10174;SDS011;18221;38.704;0.152;2023-06-10T12:17:23;7.18;;;3.63;;
10174;SDS011;18221;38.704;0.152;2023-06-10T12:20:04;7.53;;;3.47;;
10174;SDS011;18221;38.704;0.152;2023-06-10T12:22:39;7.97;;;3.42;;
10174;SDS011;18221;38.704;0.152;2023-06-10T12:25:09;7.22;;;3.38;;
10174;SDS011;18221;38.704;0.152;2023-06-10T12:27:39;6.47;;;3.25;;
10174;SDS011;18221;38.704;0.152;2023-06-10T12:30:18;7.25;;;3.53;;
10174;SDS011;18221;38.704;0.152;2023-06-10T12:32:47;8.27;;;3.35;;
10174;SDS011;18221;38.704;0.152;2023-06-10T12:35:17;5.57;;;3.10;;
10174;SDS011;18221;38.704;0.152;2023-06-10T12:37:57;5.85;;;3.33;;
10174;SDS011;18221;38.704;0.152;2023-06-10T12:40:27;9.43;;;3.50;;
10174;SDS011;18221;38.704;0.152;2023-06-10T12:42:57;8.50;;;3.20;;
10174;SDS011;18221;38.704;0.152;2023-06-10T12:45:26;6.38;;;3.30;;
10174;SDS011;18221;38.704;0.152;2023-06-10T12:48:04;7.43;;;3.80;;
10174;SDS011;18221;38.704;0.152;2023-06-10T12:50:34;9.32;;;3.65;;
10174;SDS011;18221;38.704;0.152;2023-06-10T12:53:05;10.13;;;3.55;;
10174;SDS011;18221;38.704;0.152;2023-06-10T12:55:34;8.20;;;3.47;;
10174;SDS011;18221;38.704;0.152;2023-06-10T12:58:02;8.38;;;3.35;;
10174;SDS011;18221;38.704;0.152;2023-06-10T13:00:30;8.27;;;3.28;;
10174;SDS011;18221;38.704;0.152;2023-06-10T13:03:00;5.78;;;3.15;;
10174;SDS011;18221;38.704;0.152;2023-06-10T13:05:30;7.43;;;3.70;;
10174;SDS011;18221;38.704;0.152;2023-06-10T13:07:59;7.95;;;3.55;;
10174;SDS011;18221;38.704;0.152;2023-06-10T13:10:29;7.63;;;3.33;;
10174;SDS011;18221;38.704;0.152;2023-06-10T13:12:57;5.80;;;3.20;;
10174;SDS011;18221;38.704;0.152;2023-06-10T13:15:25;7.20;;;3.13;;
10174;SDS011;18221;38.704;0.152;2023-06-10T13:17:53;6.70;;;3.33;;
10174;SDS011;18221;38.704;0.152;2023-06-10T13:20:21;7.72;;;3.25;;
10174;SDS011;18221;38.704;0.152;2023-06-10T13:22:49;9.43;;;3.30;;
10174;SDS011;18221;38.704;0.152;2023-06-10T13:25:17;6.43;;;2.97;;
10174;SDS011;18221;38.704;0.152;2023-06-10T13:27:47;7.88;;;3.88;;
10174;SDS011;18221;38.704;0.152;2023-06-10T13:30:15;7.38;;;3.33;;
10174;SDS011;18221;38.704;0.152;2023-06-10T13:32:43;6.40;;;3.10;;
10174;SDS011;18221;38.704;0.152;2023-06-10T13:35:11;5.95;;;3.22;;
10174;SDS011;18221;38.704;0.152;2023-06-10T13:37:39;6.70;;;3.08;;
10174;SDS011;18221;38.704;0.152;2023-06-10T13:40:07;5.63;;;2.90;;
10174;SDS011;18221;38.704;0.152;2023-06-10T13:42:36;6.40;;;3.00;;
10174;SDS011;18221;38.704;0.152;2023-06-10T13:45:06;7.45;;;3.10;;
10174;SDS011;18221;38.704;0.152;2023-06-10T13:47:35;8.13;;;3.30;;
10174;SDS011;18221;38.704;0.152;2023-06-10T13:50:03;7.00;;;3.10;;
10174;SDS011;18221;38.704;0.152;2023-06-10T13:52:33;9.45;;;3.30;;
10174;SDS011;18221;38.704;0.152;2023-06-10T13:55:00;6.32;;;2.90;;
10174;SDS011;18221;38.704;0.152;2023-06-10T13:57:28;5.85;;;3.25;;
10174;SDS011;18221;38.704;0.152;2023-06-10T13:59:56;6.72;;;2.83;;
10174;SDS011;18221;38.704;0.152;2023-06-10T14:02:27;6.53;;;2.85;;
10174;SDS011;18221;38.704;0.152;2023-06-10T14:04:55;6.10;;;2.97;;
10174;SDS011;18221;38.704;0.152;2023-06-10T14:07:23;7.35;;;3.35;;
10174;SDS011;18221;38.704;0.152;2023-06-10T14:09:51;6.75;;;2.92;;
10174;SDS011;18221;38.704;0.152;2023-06-10T14:12:19;6.38;;;3.17;;
10174;SDS011;18221;38.704;0.152;2023-06-10T14:14:47;6.25;;;2.92;;
10174;SDS011;18221;38.704;0.152;2023-06-10T14:17:15;5.38;;;2.90;;
10174;SDS011;18221;38.704;0.152;2023-06-10T14:19:45;3.67;;;2.53;;
10174;SDS011;18221;38.704;0.152;2023-06-10T14:22:13;4.57;;;2.95;;
10174;SDS011;18221;38.704;0.152;2023-06-10T14:24:41;5.28;;;2.63;;
10174;SDS011;18221;38.704;0.152;2023-06-10T14:27:09;4.22;;;2.42;;
10174;SDS011;18221;38.704;0.152;2023-06-10T14:29:37;5.35;;;2.33;;
10174;SDS011;18221;38.704;0.152;2023-06-10T14:32:06;5.40;;;2.28;;
10174;SDS011;18221;38.704;0.152;2023-06-10T14:34:35;3.72;;;2.10;;
10174;SDS011;18221;38.704;0.152;2023-06-10T14:37:06;4.53;;;2.50;;
10174;SDS011;18221;38.704;0.152;2023-06-10T14:39:34;6.18;;;2.60;;
10174;SDS011;18221;38.704;0.152;2023-06-10T14:42:02;3.97;;;2.30;;
10174;SDS011;18221;38.704;0.152;2023-06-10T14:44:31;5.32;;;2.38;;
10174;SDS011;18221;38.704;0.152;2023-06-10T14:46:59;4.50;;;2.67;;
10174;SDS011;18221;38.704;0.152;2023-06-10T14:49:28;5.88;;;2.70;;
10174;SDS011;18221;38.704;0.152;2023-06-10T14:51:56;4.50;;;2.42;;
10174;SDS011;18221;38.704;0.152;2023-06-10T14:54:25;4.57;;;2.25;;
10174;SDS011;18221;38.704;0.152;2023-06-10T14:56:53;5.72;;;2.25;;
10174;SDS011;18221;38.704;0.152;2023-06-10T14:59:21;3.47;;;2.33;;
10174;SDS011;18221;38.704;0.152;2023-06-10T15:01:49;4.80;;;2.47;;
10174;SDS011;18221;38.704;0.152;2023-06-10T15:04:17;4.70;;;2.50;;
10174;SDS011;18221;38.704;0.152;2023-06-10T15:06:45;4.10;;;1.95;;
10174;SDS011;18221;38.704;0.152;2023-06-10T15:09:15;4.28;;;2.40;;
10174;SDS011;18221;38.704;0.152;2023-06-10T15:11:44;4.90;;;2.20;;
10174;SDS011;18221;38.704;0.152;2023-06-10T15:14:12;3.78;;;2.20;;
10174;SDS011;18221;38.704;0.152;2023-06-10T15:16:41;6.93;;;2.55;;
10174;SDS011;18221;38.704;0.152;2023-06-10T15:19:09;6.40;;;2.63;;